createdAt,value
2022-07-30T00:00:19.668Z,7.35
2022-07-30T00:02:52.172Z,5.57
2022-07-30T00:05:19.322Z,4.60
2022-07-30T00:07:46.357Z,4.18
2022-07-30T00:10:13.557Z,5.28
2022-07-30T00:12:40.571Z,5.18
2022-07-30T00:15:08.089Z,3.88
2022-07-30T00:17:35.020Z,5.45
2022-07-30T00:20:02.941Z,6.97
2022-07-30T00:22:31.256Z,16.73
2022-07-30T00:24:58.623Z,6.13
2022-07-30T00:27:25.564Z,6.22
2022-07-30T00:29:52.534Z,5.82
2022-07-30T00:32:19.636Z,6.25
2022-07-30T00:34:46.697Z,4.53
2022-07-30T00:37:13.559Z,6.75
2022-07-30T00:39:40.530Z,4.55
2022-07-30T00:42:07.551Z,5.22
2022-07-30T00:44:34.684Z,5.03
2022-07-30T00:47:02.030Z,4.97
2022-07-30T00:49:29.547Z,5.35
2022-07-30T00:51:56.496Z,4.10
2022-07-30T00:54:23.535Z,7.13
2022-07-30T00:56:50.775Z,6.97
2022-07-30T00:59:17.894Z,5.28
2022-07-30T01:01:46.067Z,5.95
2022-07-30T01:04:13.075Z,4.45
2022-07-30T01:06:40.633Z,5.35
2022-07-30T01:09:08.378Z,3.95
2022-07-30T01:11:40.581Z,9.70
2022-07-30T01:14:08.915Z,4.93
2022-07-30T01:16:38.052Z,5.35
2022-07-30T01:19:30.162Z,5.78
2022-07-30T01:22:09.187Z,7.85
2022-07-30T01:24:42.180Z,8.13
2022-07-30T01:27:11.486Z,6.15
2022-07-30T01:29:41.099Z,7.13
2022-07-30T01:32:10.999Z,4.72
2022-07-30T01:34:39.308Z,6.57
2022-07-30T01:37:09.045Z,10.18
2022-07-30T01:39:37.172Z,8.15
2022-07-30T01:42:07.592Z,6.70
2022-07-30T01:44:36.007Z,11.43
2022-07-30T01:47:03.829Z,7.50
2022-07-30T01:49:32.245Z,10.75
2022-07-30T01:52:00.320Z,9.18
2022-07-30T01:54:29.050Z,11.63
2022-07-30T01:56:59.262Z,9.30
2022-07-30T01:59:28.166Z,8.10
2022-07-30T02:01:55.260Z,5.35
2022-07-30T02:04:22.961Z,6.95
2022-07-30T02:07:01.375Z,4.57
2022-07-30T02:09:37.690Z,5.85
2022-07-30T02:12:25.298Z,6.28
2022-07-30T02:14:59.899Z,4.95
2022-07-30T02:17:39.534Z,4.60
2022-07-30T02:20:13.485Z,6.45
2022-07-30T02:22:43.702Z,7.68
2022-07-30T02:25:17.532Z,5.57
2022-07-30T02:27:46.598Z,5.85
2022-07-30T02:30:16.860Z,5.82
2022-07-30T02:32:45.043Z,8.45
2022-07-30T02:35:17.221Z,4.45
2022-07-30T02:37:46.976Z,5.05
2022-07-30T02:40:18.059Z,7.95
2022-07-30T02:42:53.285Z,5.00
2022-07-30T02:45:22.529Z,7.10
2022-07-30T02:47:53.644Z,8.52
2022-07-30T02:50:21.191Z,7.68
2022-07-30T02:52:49.798Z,7.32
2022-07-30T02:55:18.162Z,5.97
2022-07-30T02:57:47.055Z,6.20
2022-07-30T03:00:14.579Z,5.68
2022-07-30T03:02:43.796Z,7.32
2022-07-30T03:05:13.841Z,5.45
2022-07-30T03:07:42.102Z,6.85
2022-07-30T03:10:09.496Z,9.35
2022-07-30T03:12:38.860Z,7.30
2022-07-30T03:15:06.624Z,10.13
2022-07-30T03:17:40.250Z,5.63
2022-07-30T03:20:14.776Z,9.10
2022-07-30T03:25:13.006Z,5.82
2022-07-30T03:27:40.743Z,7.78
2022-07-30T03:30:08.402Z,7.55
2022-07-30T03:32:36.027Z,9.32
2022-07-30T03:35:06.374Z,10.93
2022-07-30T03:37:36.986Z,5.53
2022-07-30T03:40:05.974Z,6.78
2022-07-30T03:42:34.667Z,5.68
2022-07-30T03:45:05.779Z,7.07
2022-07-30T03:47:36.029Z,7.10
2022-07-30T03:50:03.640Z,6.65
2022-07-30T03:52:34.985Z,10.20
2022-07-30T03:55:03.590Z,6.97
2022-07-30T03:57:30.786Z,9.90
2022-07-30T03:59:57.768Z,6.45
2022-07-30T04:02:25.132Z,6.63
2022-07-30T04:04:52.501Z,9.65
2022-07-30T04:07:19.584Z,6.38
2022-07-30T04:09:46.718Z,5.63
2022-07-30T04:12:14.043Z,7.65
2022-07-30T04:14:43.382Z,7.80
2022-07-30T04:17:17.379Z,7.20
2022-07-30T04:19:51.065Z,10.05
2022-07-30T04:22:23.436Z,7.70
2022-07-30T04:24:52.236Z,6.78
2022-07-30T04:27:19.775Z,8.98
2022-07-30T04:29:47.074Z,7.03
2022-07-30T04:32:14.230Z,10.20
2022-07-30T04:34:52.949Z,6.82
2022-07-30T04:37:22.330Z,7.35
2022-07-30T04:39:51.411Z,6.78
2022-07-30T04:42:18.375Z,8.50
2022-07-30T04:44:45.347Z,10.93
2022-07-30T04:47:12.898Z,7.03
2022-07-30T04:49:42.204Z,6.72
2022-07-30T04:52:10.805Z,8.85
2022-07-30T04:54:45.335Z,6.95
2022-07-30T04:59:40.816Z,7.82
2022-07-30T05:02:08.694Z,10.25
2022-07-30T05:04:37.364Z,8.70
2022-07-30T05:07:05.634Z,7.97
2022-07-30T05:09:33.110Z,7.18
2022-07-30T05:12:00.095Z,7.30
2022-07-30T05:14:28.643Z,6.38
2022-07-30T05:16:55.774Z,7.97
2022-07-30T05:19:23.412Z,9.30
2022-07-30T05:21:50.491Z,6.70
2022-07-30T05:24:17.435Z,6.07
2022-07-30T05:26:44.620Z,7.32
2022-07-30T05:29:19.384Z,7.47
2022-07-30T05:31:47.733Z,5.50
2022-07-30T05:34:14.822Z,6.00
2022-07-30T05:36:42.871Z,8.82
2022-07-30T05:39:09.838Z,7.45
2022-07-30T05:41:36.854Z,5.25
2022-07-30T05:44:03.885Z,11.98
2022-07-30T05:46:31.371Z,7.18
2022-07-30T05:48:58.597Z,5.80
2022-07-30T05:51:25.690Z,6.55
2022-07-30T05:53:52.763Z,7.78
2022-07-30T05:56:19.791Z,5.45
2022-07-30T05:58:47.094Z,5.35
2022-07-30T06:01:14.102Z,7.15
2022-07-30T06:03:41.456Z,5.15
2022-07-30T06:06:08.820Z,8.95
2022-07-30T06:08:35.940Z,7.18
2022-07-30T06:11:03.299Z,5.97
2022-07-30T06:13:30.280Z,6.32
2022-07-30T06:15:57.339Z,4.15
2022-07-30T06:18:24.354Z,6.38
2022-07-30T06:20:52.411Z,5.47
2022-07-30T06:23:20.230Z,5.85
2022-07-30T06:25:51.111Z,8.02
2022-07-30T06:31:07.040Z,7.95
2022-07-30T06:33:33.989Z,6.07
2022-07-30T06:36:00.945Z,6.43
2022-07-30T06:38:28.435Z,9.98
2022-07-30T06:40:59.219Z,5.22
2022-07-30T06:43:29.111Z,6.28
2022-07-30T06:45:56.169Z,5.88
2022-07-30T06:48:23.426Z,6.57
2022-07-30T06:50:50.360Z,7.90
2022-07-30T06:53:17.392Z,7.63
2022-07-30T06:55:44.297Z,6.47
2022-07-30T06:58:11.275Z,6.53
2022-07-30T07:00:38.242Z,4.97
2022-07-30T07:03:09.902Z,8.38
2022-07-30T07:05:39.007Z,10.48
2022-07-30T07:08:06.055Z,6.50
2022-07-30T07:10:32.992Z,6.13
2022-07-30T07:13:00.754Z,6.53
2022-07-30T07:15:36.502Z,4.90
2022-07-30T07:18:04.908Z,10.55
2022-07-30T07:20:32.329Z,7.63
2022-07-30T07:22:59.534Z,7.30
2022-07-30T07:25:26.608Z,7.32
2022-07-30T07:28:10.850Z,7.97
2022-07-30T07:30:41.750Z,7.28
2022-07-30T07:33:09.600Z,7.32
2022-07-30T07:35:45.439Z,9.05
2022-07-30T07:38:19.993Z,8.73
2022-07-30T07:40:47.601Z,8.25
2022-07-30T07:43:14.866Z,10.07
2022-07-30T07:45:45.663Z,7.13
2022-07-30T07:48:12.999Z,6.10
2022-07-30T07:50:40.234Z,9.50
2022-07-30T07:53:07.238Z,7.63
2022-07-30T07:55:34.330Z,9.40
2022-07-30T07:58:01.940Z,9.15
2022-07-30T08:00:29.686Z,7.10
2022-07-30T08:02:56.828Z,7.32
2022-07-30T08:05:24.418Z,6.18
2022-07-30T08:07:51.325Z,8.07
2022-07-30T08:10:19.057Z,6.38
2022-07-30T08:12:46.232Z,5.57
2022-07-30T08:15:13.323Z,6.40
2022-07-30T08:17:46.991Z,6.78
2022-07-30T08:20:16.001Z,6.15
2022-07-30T08:22:43.894Z,5.68
2022-07-30T08:25:11.416Z,6.25
2022-07-30T08:27:49.076Z,6.07
2022-07-30T08:30:16.059Z,4.95
2022-07-30T08:32:43.329Z,9.40
2022-07-30T08:35:10.617Z,6.45
2022-07-30T08:37:40.912Z,4.75
2022-07-30T08:40:08.789Z,5.88
2022-07-30T08:42:36.452Z,5.72
2022-07-30T08:45:03.913Z,5.00
2022-07-30T08:47:34.693Z,6.43
2022-07-30T08:50:05.204Z,4.38
2022-07-30T08:52:37.015Z,4.95
2022-07-30T08:55:08.219Z,5.75
2022-07-30T08:57:36.178Z,5.32
2022-07-30T09:00:07.278Z,4.32
2022-07-30T09:02:34.549Z,6.60
2022-07-30T09:05:02.899Z,4.20
2022-07-30T09:07:31.847Z,5.47
2022-07-30T09:09:59.199Z,6.03
2022-07-30T09:12:37.997Z,4.60
2022-07-30T09:15:06.458Z,3.72
2022-07-30T09:17:58.530Z,4.88
2022-07-30T09:20:31.779Z,3.78
2022-07-30T09:23:01.175Z,5.40
2022-07-30T09:25:41.407Z,4.35
2022-07-30T09:28:16.280Z,5.97
2022-07-30T09:30:48.278Z,4.32
2022-07-30T09:33:16.025Z,4.07
2022-07-30T09:35:44.949Z,4.82
2022-07-30T09:38:12.572Z,3.83
2022-07-30T09:40:39.676Z,11.35
2022-07-30T09:43:11.137Z,2.95
2022-07-30T09:45:57.202Z,4.57
2022-07-30T09:48:28.617Z,4.45
2022-07-30T09:50:57.562Z,4.65
2022-07-30T09:53:24.864Z,5.57
2022-07-30T09:55:51.834Z,4.20
2022-07-30T09:58:26.937Z,3.13
2022-07-30T10:00:59.661Z,2.92
2022-07-30T10:03:34.139Z,5.22
2022-07-30T10:06:11.874Z,3.22
2022-07-30T10:08:46.112Z,5.28
2022-07-30T10:11:16.338Z,3.47
2022-07-30T10:13:45.795Z,3.30
2022-07-30T10:16:13.472Z,2.97
2022-07-30T10:18:42.950Z,4.50
2022-07-30T10:21:13.435Z,4.07
2022-07-30T10:23:44.946Z,4.70
2022-07-30T10:26:13.152Z,4.30
2022-07-30T10:28:44.688Z,4.05
2022-07-30T10:31:47.420Z,3.60
2022-07-30T10:33:59.319Z,2.90
2022-07-30T10:36:28.451Z,3.55
2022-07-30T10:38:56.906Z,6.95
2022-07-30T10:41:47.777Z,2.95
2022-07-30T10:44:33.378Z,3.90
2022-07-30T10:47:09.279Z,4.35
2022-07-30T10:49:40.912Z,3.53
2022-07-30T10:52:09.875Z,4.78
2022-07-30T10:54:41.984Z,4.07
2022-07-30T10:57:31.926Z,4.70
2022-07-30T10:59:59.761Z,4.68
2022-07-30T11:02:35.761Z,3.60
2022-07-30T11:05:18.634Z,2.75
2022-07-30T11:08:31.672Z,4.38
2022-07-30T11:10:59.996Z,3.92
2022-07-30T11:14:09.524Z,2.53
2022-07-30T11:16:37.209Z,3.60
2022-07-30T11:19:55.865Z,2.63
2022-07-30T11:22:26.096Z,3.42
2022-07-30T11:24:53.632Z,7.13
2022-07-30T11:27:42.054Z,2.00
2022-07-30T11:30:17.865Z,3.33
2022-07-30T11:32:48.881Z,2.80
2022-07-30T11:35:35.246Z,4.13
2022-07-30T11:38:11.983Z,3.55
2022-07-30T11:40:42.781Z,3.42
2022-07-30T11:43:36.254Z,3.40
2022-07-30T11:46:16.286Z,4.22
2022-07-30T11:49:05.081Z,3.58
2022-07-30T11:51:41.989Z,3.33
2022-07-30T11:54:12.985Z,3.67
2022-07-30T11:57:09.523Z,3.35
2022-07-30T11:59:54.128Z,3.75
2022-07-30T12:02:28.903Z,3.20
2022-07-30T12:04:56.070Z,2.58
2022-07-30T12:07:24.344Z,3.20
2022-07-30T12:09:51.416Z,2.58
2022-07-30T12:12:25.196Z,3.33
2022-07-30T12:17:19.767Z,2.35
2022-07-30T12:19:49.118Z,2.83
2022-07-30T12:22:16.380Z,2.97
2022-07-30T12:24:43.423Z,2.42
2022-07-30T12:27:10.996Z,3.20
2022-07-30T12:29:38.173Z,1.90
2022-07-30T12:32:05.508Z,1.75
2022-07-30T12:34:33.794Z,2.05
2022-07-30T12:37:10.070Z,3.65
2022-07-30T12:39:37.536Z,3.45
2022-07-30T12:42:04.911Z,2.28
2022-07-30T12:44:39.266Z,2.60
2022-07-30T12:47:19.273Z,4.97
2022-07-30T12:49:49.770Z,3.45
2022-07-30T12:52:28.337Z,2.70
2022-07-30T12:55:01.984Z,1.52
2022-07-30T12:57:48.518Z,2.57
2022-07-30T13:00:16.370Z,2.72
2022-07-30T13:02:43.370Z,2.28
2022-07-30T13:05:12.155Z,2.45
2022-07-30T13:07:58.958Z,3.13
2022-07-30T13:10:30.833Z,1.30
2022-07-30T13:12:58.537Z,2.15
2022-07-30T13:15:26.395Z,2.65
2022-07-30T13:17:53.488Z,1.85
2022-07-30T13:20:21.138Z,2.92
2022-07-30T13:22:48.078Z,2.47
2022-07-30T13:25:15.154Z,2.35
2022-07-30T13:27:42.222Z,3.88
2022-07-30T13:30:10.435Z,2.80
2022-07-30T13:32:37.638Z,3.10
2022-07-30T13:35:05.112Z,3.15
2022-07-30T13:37:37.871Z,2.80
2022-07-30T13:40:06.519Z,4.87
2022-07-30T13:42:33.621Z,1.30
2022-07-30T13:45:01.025Z,1.67
2022-07-30T13:47:28.110Z,1.65
2022-07-30T13:49:55.049Z,2.50
2022-07-30T13:52:21.991Z,2.83
2022-07-30T13:54:51.264Z,2.05
2022-07-30T13:57:18.378Z,1.95
2022-07-30T13:59:45.272Z,4.45
2022-07-30T14:02:12.831Z,3.00
2022-07-30T14:04:40.208Z,2.08
2022-07-30T14:07:07.568Z,2.03
2022-07-30T14:09:36.168Z,1.92
2022-07-30T14:12:14.057Z,1.75
2022-07-30T14:14:41.137Z,2.08
2022-07-30T14:17:08.328Z,1.90
2022-07-30T14:19:35.353Z,3.47
2022-07-30T14:22:02.497Z,1.75
2022-07-30T14:24:29.819Z,1.40
2022-07-30T14:26:59.981Z,4.97
2022-07-30T14:29:28.110Z,3.85
2022-07-30T14:31:55.585Z,3.10
2022-07-30T14:34:22.987Z,2.60
2022-07-30T14:36:49.945Z,2.00
2022-07-30T14:39:16.884Z,3.15
2022-07-30T14:41:43.760Z,2.22
2022-07-30T14:44:12.611Z,2.53
2022-07-30T14:46:51.515Z,2.08
2022-07-30T14:49:20.832Z,2.90
2022-07-30T14:51:47.878Z,2.05
2022-07-30T14:54:14.932Z,1.85
2022-07-30T14:56:41.925Z,2.45
2022-07-30T14:59:09.079Z,1.45
2022-07-30T15:01:36.229Z,2.78
2022-07-30T15:04:03.740Z,3.60
2022-07-30T15:06:30.929Z,5.85
2022-07-30T15:08:58.026Z,3.13
2022-07-30T15:11:25.657Z,2.00
2022-07-30T15:13:52.576Z,2.17
2022-07-30T15:16:20.196Z,3.08
2022-07-30T15:18:47.508Z,3.28
2022-07-30T15:21:14.418Z,3.15
2022-07-30T15:23:41.431Z,3.80
2022-07-30T15:26:08.390Z,3.83
2022-07-30T15:28:35.347Z,2.50
2022-07-30T15:31:02.978Z,2.55
2022-07-30T15:33:30.522Z,3.15
2022-07-30T15:36:03.994Z,3.22
2022-07-30T15:38:30.876Z,2.22
2022-07-30T15:40:57.764Z,1.83
2022-07-30T15:43:25.781Z,3.22
2022-07-30T15:45:56.117Z,2.38
2022-07-30T15:48:27.226Z,6.07
2022-07-30T15:51:01.733Z,4.32
2022-07-30T15:53:30.279Z,2.42
2022-07-30T15:55:58.257Z,2.78
2022-07-30T15:58:25.208Z,1.70
2022-07-30T16:00:52.453Z,2.28
2022-07-30T16:03:19.485Z,2.38
2022-07-30T16:05:52.091Z,2.88
2022-07-30T16:08:20.834Z,1.48
2022-07-30T16:10:48.804Z,2.22
2022-07-30T16:13:16.072Z,2.20
2022-07-30T16:15:43.028Z,1.60
2022-07-30T16:18:10.502Z,6.32
2022-07-30T16:20:37.511Z,3.22
2022-07-30T16:23:07.055Z,4.05
2022-07-30T16:25:37.323Z,3.58
2022-07-30T16:28:04.291Z,3.58
2022-07-30T16:30:31.339Z,3.20
2022-07-30T16:32:58.333Z,2.45
2022-07-30T16:35:25.247Z,2.85
2022-07-30T16:37:53.391Z,3.47
2022-07-30T16:40:20.325Z,2.63
2022-07-30T16:42:47.384Z,4.57
2022-07-30T16:45:15.166Z,3.95
2022-07-30T16:47:42.064Z,3.22
2022-07-30T16:50:09.812Z,1.67
2022-07-30T16:52:37.168Z,2.17
2022-07-30T16:55:04.447Z,3.83
2022-07-30T16:57:31.385Z,2.58
2022-07-30T16:59:58.538Z,2.35
2022-07-30T17:02:25.707Z,4.03
2022-07-30T17:04:52.834Z,2.03
2022-07-30T17:07:19.657Z,1.75
2022-07-30T17:09:52.021Z,2.20
2022-07-30T17:12:25.288Z,3.53
2022-07-30T17:14:54.049Z,3.03
2022-07-30T17:17:21.117Z,2.85
2022-07-30T17:19:48.078Z,2.45
2022-07-30T17:22:14.957Z,2.58
2022-07-30T17:24:42.080Z,3.03
2022-07-30T17:27:09.114Z,3.08
2022-07-30T17:29:48.386Z,2.97
2022-07-30T17:32:18.207Z,3.05
2022-07-30T17:34:45.672Z,6.25
2022-07-30T17:37:12.563Z,3.50
2022-07-30T17:40:26.912Z,2.47
2022-07-30T17:42:26.351Z,1.27
2022-07-30T17:44:53.410Z,1.33
2022-07-30T17:47:20.734Z,3.92
2022-07-30T17:49:47.703Z,1.58
2022-07-30T17:52:14.586Z,1.65
2022-07-30T17:54:41.814Z,1.52
2022-07-30T17:57:09.393Z,3.00
2022-07-30T17:59:36.471Z,2.50
2022-07-30T18:02:04.764Z,1.50
2022-07-30T18:04:32.509Z,1.23
2022-07-30T18:06:59.470Z,1.13
2022-07-30T18:09:26.653Z,1.52
2022-07-30T18:11:54.019Z,3.00
2022-07-30T18:14:23.955Z,1.08
2022-07-30T18:16:52.357Z,1.98
2022-07-30T18:19:22.827Z,2.22
2022-07-30T18:21:54.650Z,1.60
2022-07-30T18:24:24.668Z,1.65
2022-07-30T18:26:52.145Z,3.20
2022-07-30T18:29:19.061Z,2.47
2022-07-30T18:31:48.288Z,3.40
2022-07-30T18:34:15.330Z,2.80
2022-07-30T18:36:42.260Z,4.88
2022-07-30T18:39:09.333Z,2.45
2022-07-30T18:41:36.499Z,2.40
2022-07-30T18:44:03.884Z,1.55
2022-07-30T18:46:30.808Z,1.48
2022-07-30T18:48:59.232Z,2.50
2022-07-30T18:51:33.917Z,2.80
2022-07-30T18:54:01.036Z,2.70
2022-07-30T18:56:27.988Z,2.17
2022-07-30T18:58:54.950Z,4.05
2022-07-30T19:01:22.826Z,2.38
2022-07-30T19:03:50.279Z,2.22
2022-07-30T19:06:18.173Z,2.78
2022-07-30T19:08:48.516Z,3.53
2022-07-30T19:11:15.590Z,3.55
2022-07-30T19:13:42.550Z,3.00
2022-07-30T19:16:10.541Z,2.30
2022-07-30T19:18:37.415Z,2.70
2022-07-30T19:21:04.477Z,2.05
2022-07-30T19:23:31.425Z,1.98
2022-07-30T19:25:58.412Z,3.25
2022-07-30T19:28:25.445Z,2.72
2022-07-30T19:30:52.465Z,3.33
2022-07-30T19:33:19.408Z,3.45
2022-07-30T19:35:47.252Z,2.80
2022-07-30T19:41:01.454Z,2.83
2022-07-30T19:43:30.241Z,2.53
2022-07-30T19:46:00.549Z,1.88
2022-07-30T19:48:29.446Z,2.05
2022-07-30T19:51:01.480Z,5.28
2022-07-30T19:53:31.596Z,2.28
2022-07-30T19:56:04.611Z,2.03
2022-07-30T19:58:37.833Z,3.50
2022-07-30T20:01:08.333Z,1.90
2022-07-30T20:03:37.076Z,1.33
2022-07-30T20:06:07.561Z,1.63
2022-07-30T20:08:36.172Z,4.65
2022-07-30T20:11:07.467Z,2.83
2022-07-30T20:13:44.686Z,2.50
2022-07-30T20:16:14.853Z,2.88
2022-07-30T20:18:42.874Z,2.92
2022-07-30T20:21:15.106Z,4.38
2022-07-30T20:23:44.580Z,1.48
2022-07-30T20:26:14.098Z,1.65
2022-07-30T20:28:45.765Z,4.13
2022-07-30T20:31:13.276Z,2.95
2022-07-30T20:33:40.789Z,1.60
2022-07-30T20:36:09.909Z,3.85
2022-07-30T20:38:38.806Z,2.67
2022-07-30T20:41:09.940Z,2.83
2022-07-30T20:43:51.536Z,3.75
2022-07-30T20:46:20.731Z,3.05
2022-07-30T20:48:51.433Z,3.55
2022-07-30T20:51:18.705Z,3.90
2022-07-30T20:53:46.184Z,2.67
2022-07-30T20:56:14.934Z,4.32
2022-07-30T20:58:45.337Z,3.03
2022-07-30T21:01:17.435Z,4.22
2022-07-30T21:03:48.060Z,4.20
2022-07-30T21:06:16.604Z,2.10
2022-07-30T21:08:43.607Z,2.53
2022-07-30T21:11:12.631Z,3.40
2022-07-30T21:13:39.813Z,2.35
2022-07-30T21:16:15.521Z,3.58
2022-07-30T21:18:50.250Z,3.78
2022-07-30T21:21:30.847Z,2.25
2022-07-30T21:24:06.490Z,5.18
2022-07-30T21:26:42.262Z,3.65
2022-07-30T21:29:09.842Z,2.47
2022-07-30T21:32:01.228Z,2.75
2022-07-30T21:34:26.352Z,4.07
2022-07-30T21:36:53.825Z,3.13
2022-07-30T21:39:28.638Z,4.95
2022-07-30T21:41:56.344Z,2.60
2022-07-30T21:44:23.825Z,5.40
2022-07-30T21:46:50.854Z,3.42
2022-07-30T21:49:17.879Z,4.43
2022-07-30T21:51:44.877Z,2.03
2022-07-30T21:54:13.878Z,3.17
2022-07-30T21:56:44.055Z,4.38
2022-07-30T21:59:11.432Z,2.53
2022-07-30T22:01:38.970Z,3.15
2022-07-30T22:04:14.686Z,2.33
2022-07-30T22:06:44.056Z,2.72
2022-07-30T22:09:19.657Z,4.28
2022-07-30T22:12:01.920Z,3.08
2022-07-30T22:14:34.012Z,4.00
2022-07-30T22:17:04.429Z,3.88
2022-07-30T22:19:31.747Z,3.40
2022-07-30T22:22:00.174Z,3.63
2022-07-30T22:24:32.077Z,3.50
2022-07-30T22:27:01.554Z,6.13
2022-07-30T22:29:34.267Z,5.00
2022-07-30T22:32:04.104Z,8.40
2022-07-30T22:34:31.574Z,3.00
2022-07-30T22:36:58.888Z,3.35
2022-07-30T22:39:32.279Z,3.92
2022-07-30T22:42:13.154Z,3.60
2022-07-30T22:44:41.547Z,5.97
2022-07-30T22:47:20.893Z,3.13
2022-07-30T22:49:52.724Z,4.85
2022-07-30T22:52:25.512Z,3.47
2022-07-30T22:54:55.202Z,5.07
2022-07-30T22:57:22.975Z,3.72
2022-07-30T22:59:58.138Z,4.18
2022-07-30T23:02:27.887Z,5.05
2022-07-30T23:04:56.246Z,4.45
2022-07-30T23:07:23.605Z,5.45
2022-07-30T23:10:04.195Z,2.92
2022-07-30T23:12:14.684Z,3.42
2022-07-30T23:12:47.342Z,3.20
2022-07-30T23:15:14.895Z,6.10
2022-07-30T23:17:41.910Z,4.35
2022-07-30T23:20:11.392Z,4.63
2022-07-30T23:22:38.661Z,6.15
2022-07-30T23:25:07.936Z,2.70
2022-07-30T23:27:34.909Z,3.70
2022-07-30T23:30:02.075Z,5.43
2022-07-30T23:32:29.183Z,5.18
2022-07-30T23:34:56.177Z,2.67
2022-07-30T23:37:23.012Z,3.00
2022-07-30T23:39:50.079Z,3.47
2022-07-30T23:42:17.216Z,2.90
2022-07-30T23:44:44.198Z,3.47
2022-07-30T23:47:11.244Z,3.58
2022-07-30T23:49:38.325Z,3.13
2022-07-30T23:52:05.352Z,3.00
2022-07-30T23:54:32.371Z,3.15
2022-07-30T23:56:59.343Z,2.88
2022-07-30T23:59:40.633Z,5.78
